sensor_id;sensor_type;location;lat;lon;timestamp;P1;durP1;ratioP1;P2;durP2;ratioP2
9461;SDS011;4769;42.660;23.262;2023-04-03T00:00:07;2.07;;;1.63;;
9461;SDS011;4769;42.660;23.262;2023-04-03T00:02:34;2.63;;;2.27;;
9461;SDS011;4769;42.660;23.262;2023-04-03T00:05:02;2.57;;;2.07;;
9461;SDS011;4769;42.660;23.262;2023-04-03T00:07:28;3.50;;;2.47;;
9461;SDS011;4769;42.660;23.262;2023-04-03T00:09:54;2.30;;;1.90;;
9461;SDS011;4769;42.660;23.262;2023-04-03T00:12:20;2.90;;;2.10;;
9461;SDS011;4769;42.660;23.262;2023-04-03T00:14:46;1.93;;;1.60;;
9461;SDS011;4769;42.660;23.262;2023-04-03T00:17:11;2.10;;;1.63;;
9461;SDS011;4769;42.660;23.262;2023-04-03T00:19:37;2.10;;;1.70;;
9461;SDS011;4769;42.660;23.262;2023-04-03T00:22:05;1.97;;;1.53;;
9461;SDS011;4769;42.660;23.262;2023-04-03T00:24:31;2.10;;;1.70;;
9461;SDS011;4769;42.660;23.262;2023-04-03T00:26:57;1.67;;;1.47;;
9461;SDS011;4769;42.660;23.262;2023-04-03T00:29:22;1.73;;;1.63;;
9461;SDS011;4769;42.660;23.262;2023-04-03T00:31:48;1.87;;;1.47;;
9461;SDS011;4769;42.660;23.262;2023-04-03T00:34:14;2.23;;;1.30;;
9461;SDS011;4769;42.660;23.262;2023-04-03T00:36:39;1.40;;;1.10;;
9461;SDS011;4769;42.660;23.262;2023-04-03T00:39:08;1.57;;;1.47;;
9461;SDS011;4769;42.660;23.262;2023-04-03T00:41:33;1.40;;;1.30;;
9461;SDS011;4769;42.660;23.262;2023-04-03T00:43:59;1.40;;;1.30;;
9461;SDS011;4769;42.660;23.262;2023-04-03T00:46:25;2.40;;;1.70;;
9461;SDS011;4769;42.660;23.262;2023-04-03T00:48:50;1.47;;;1.37;;
9461;SDS011;4769;42.660;23.262;2023-04-03T00:51:17;1.50;;;1.40;;
9461;SDS011;4769;42.660;23.262;2023-04-03T00:53:47;1.53;;;1.43;;
9461;SDS011;4769;42.660;23.262;2023-04-03T00:56:19;1.57;;;1.47;;
9461;SDS011;4769;42.660;23.262;2023-04-03T00:58:48;1.50;;;1.40;;
9461;SDS011;4769;42.660;23.262;2023-04-03T01:01:18;1.83;;;1.57;;
9461;SDS011;4769;42.660;23.262;2023-04-03T01:03:48;1.40;;;1.30;;
9461;SDS011;4769;42.660;23.262;2023-04-03T01:06:14;1.47;;;1.23;;
9461;SDS011;4769;42.660;23.262;2023-04-03T01:08:42;1.70;;;1.33;;
9461;SDS011;4769;42.660;23.262;2023-04-03T01:11:09;1.73;;;1.63;;
9461;SDS011;4769;42.660;23.262;2023-04-03T01:13:37;1.70;;;1.60;;
9461;SDS011;4769;42.660;23.262;2023-04-03T01:16:03;1.57;;;1.47;;
9461;SDS011;4769;42.660;23.262;2023-04-03T01:18:30;1.67;;;1.37;;
9461;SDS011;4769;42.660;23.262;2023-04-03T01:23:55;2.07;;;1.53;;
9461;SDS011;4769;42.660;23.262;2023-04-03T01:26:30;1.93;;;1.70;;
9461;SDS011;4769;42.660;23.262;2023-04-03T01:28:59;1.70;;;1.60;;
9461;SDS011;4769;42.660;23.262;2023-04-03T01:31:25;2.37;;;1.13;;
9461;SDS011;4769;42.660;23.262;2023-04-03T01:33:56;2.40;;;1.37;;
9461;SDS011;4769;42.660;23.262;2023-04-03T01:36:23;3.43;;;1.80;;
9461;SDS011;4769;42.660;23.262;2023-04-03T01:38:52;1.63;;;1.53;;
9461;SDS011;4769;42.660;23.262;2023-04-03T01:41:18;2.20;;;2.00;;
9461;SDS011;4769;42.660;23.262;2023-04-03T01:43:44;1.97;;;1.67;;
9461;SDS011;4769;42.660;23.262;2023-04-03T01:46:10;4.13;;;2.23;;
9461;SDS011;4769;42.660;23.262;2023-04-03T01:48:35;3.13;;;1.70;;
9461;SDS011;4769;42.660;23.262;2023-04-03T01:51:04;36.80;;;21.60;;
9461;SDS011;4769;42.660;23.262;2023-04-03T01:53:30;13.30;;;8.93;;
9461;SDS011;4769;42.660;23.262;2023-04-03T01:55:55;13.60;;;7.80;;
9461;SDS011;4769;42.660;23.262;2023-04-03T01:58:21;7.93;;;4.87;;
9461;SDS011;4769;42.660;23.262;2023-04-03T02:00:47;8.33;;;5.73;;
9461;SDS011;4769;42.660;23.262;2023-04-03T02:03:16;7.63;;;5.17;;
9461;SDS011;4769;42.660;23.262;2023-04-03T02:05:41;6.10;;;4.23;;
9461;SDS011;4769;42.660;23.262;2023-04-03T02:08:10;4.67;;;3.60;;
9461;SDS011;4769;42.660;23.262;2023-04-03T02:10:36;3.83;;;2.73;;
9461;SDS011;4769;42.660;23.262;2023-04-03T02:13:02;2.93;;;2.10;;
9461;SDS011;4769;42.660;23.262;2023-04-03T02:15:28;3.20;;;2.10;;
9461;SDS011;4769;42.660;23.262;2023-04-03T02:17:53;3.67;;;2.40;;
9461;SDS011;4769;42.660;23.262;2023-04-03T02:20:19;2.07;;;1.87;;
9461;SDS011;4769;42.660;23.262;2023-04-03T02:22:45;3.73;;;2.27;;
9461;SDS011;4769;42.660;23.262;2023-04-03T02:25:14;2.83;;;1.60;;
9461;SDS011;4769;42.660;23.262;2023-04-03T02:27:40;1.50;;;1.40;;
9461;SDS011;4769;42.660;23.262;2023-04-03T02:30:06;3.57;;;2.17;;
9461;SDS011;4769;42.660;23.262;2023-04-03T02:32:32;1.60;;;1.50;;
9461;SDS011;4769;42.660;23.262;2023-04-03T02:34:58;3.60;;;2.63;;
9461;SDS011;4769;42.660;23.262;2023-04-03T02:37:23;3.57;;;2.90;;
9461;SDS011;4769;42.660;23.262;2023-04-03T02:39:49;5.43;;;3.10;;
9461;SDS011;4769;42.660;23.262;2023-04-03T02:42:18;4.27;;;3.27;;
9461;SDS011;4769;42.660;23.262;2023-04-03T02:44:43;3.83;;;2.70;;
9461;SDS011;4769;42.660;23.262;2023-04-03T02:47:09;3.63;;;2.77;;
9461;SDS011;4769;42.660;23.262;2023-04-03T02:49:35;4.13;;;2.37;;
9461;SDS011;4769;42.660;23.262;2023-04-03T02:52:00;5.40;;;2.53;;
9461;SDS011;4769;42.660;23.262;2023-04-03T02:54:26;6.23;;;4.33;;
9461;SDS011;4769;42.660;23.262;2023-04-03T02:56:52;5.13;;;3.67;;
9461;SDS011;4769;42.660;23.262;2023-04-03T02:59:20;5.40;;;4.30;;
9461;SDS011;4769;42.660;23.262;2023-04-03T03:01:46;5.03;;;2.60;;
9461;SDS011;4769;42.660;23.262;2023-04-03T03:04:12;4.30;;;2.97;;
9461;SDS011;4769;42.660;23.262;2023-04-03T03:06:37;4.40;;;3.60;;
9461;SDS011;4769;42.660;23.262;2023-04-03T03:09:03;3.73;;;3.30;;
9461;SDS011;4769;42.660;23.262;2023-04-03T03:11:29;5.30;;;3.40;;
9461;SDS011;4769;42.660;23.262;2023-04-03T03:13:56;4.37;;;3.60;;
9461;SDS011;4769;42.660;23.262;2023-04-03T03:16:24;4.23;;;3.73;;
9461;SDS011;4769;42.660;23.262;2023-04-03T03:18:50;3.50;;;3.20;;
9461;SDS011;4769;42.660;23.262;2023-04-03T03:21:16;3.60;;;3.30;;
9461;SDS011;4769;42.660;23.262;2023-04-03T03:23:41;4.00;;;3.20;;
9461;SDS011;4769;42.660;23.262;2023-04-03T03:26:08;4.07;;;3.67;;
9461;SDS011;4769;42.660;23.262;2023-04-03T03:28:35;6.60;;;4.97;;
9461;SDS011;4769;42.660;23.262;2023-04-03T03:31:02;8.43;;;7.60;;
9461;SDS011;4769;42.660;23.262;2023-04-03T03:33:31;8.50;;;7.60;;
9461;SDS011;4769;42.660;23.262;2023-04-03T03:35:57;7.57;;;4.97;;
9461;SDS011;4769;42.660;23.262;2023-04-03T03:38:23;4.37;;;3.97;;
9461;SDS011;4769;42.660;23.262;2023-04-03T03:40:49;4.47;;;3.90;;
9461;SDS011;4769;42.660;23.262;2023-04-03T03:43:16;7.30;;;4.10;;
9461;SDS011;4769;42.660;23.262;2023-04-03T03:45:42;4.37;;;3.43;;
9461;SDS011;4769;42.660;23.262;2023-04-03T03:48:09;3.87;;;3.00;;
9461;SDS011;4769;42.660;23.262;2023-04-03T03:50:37;5.17;;;3.60;;
9461;SDS011;4769;42.660;23.262;2023-04-03T03:53:03;6.80;;;3.80;;
9461;SDS011;4769;42.660;23.262;2023-04-03T03:55:29;3.57;;;3.27;;
9461;SDS011;4769;42.660;23.262;2023-04-03T03:57:54;4.90;;;3.23;;
9461;SDS011;4769;42.660;23.262;2023-04-03T04:00:20;3.70;;;3.17;;
9461;SDS011;4769;42.660;23.262;2023-04-03T04:02:46;4.47;;;3.77;;
9461;SDS011;4769;42.660;23.262;2023-04-03T04:05:12;4.40;;;3.63;;
9461;SDS011;4769;42.660;23.262;2023-04-03T04:07:40;4.87;;;4.07;;
9461;SDS011;4769;42.660;23.262;2023-04-03T04:10:07;9.13;;;5.13;;
9461;SDS011;4769;42.660;23.262;2023-04-03T04:12:33;8.27;;;6.10;;
9461;SDS011;4769;42.660;23.262;2023-04-03T04:14:59;8.67;;;6.07;;
9461;SDS011;4769;42.660;23.262;2023-04-03T04:17:24;9.00;;;6.00;;
9461;SDS011;4769;42.660;23.262;2023-04-03T04:19:50;8.00;;;5.70;;
9461;SDS011;4769;42.660;23.262;2023-04-03T04:22:16;9.20;;;6.37;;
9461;SDS011;4769;42.660;23.262;2023-04-03T04:24:44;7.63;;;5.57;;
9461;SDS011;4769;42.660;23.262;2023-04-03T04:27:10;9.97;;;5.27;;
9461;SDS011;4769;42.660;23.262;2023-04-03T04:29:36;6.87;;;5.73;;
9461;SDS011;4769;42.660;23.262;2023-04-03T04:32:01;7.80;;;7.00;;
9461;SDS011;4769;42.660;23.262;2023-04-03T04:34:27;8.87;;;6.83;;
9461;SDS011;4769;42.660;23.262;2023-04-03T04:36:53;5.47;;;4.60;;
9461;SDS011;4769;42.660;23.262;2023-04-03T04:39:18;8.63;;;5.30;;
9461;SDS011;4769;42.660;23.262;2023-04-03T04:41:47;6.87;;;5.03;;
9461;SDS011;4769;42.660;23.262;2023-04-03T04:44:13;7.87;;;5.33;;
9461;SDS011;4769;42.660;23.262;2023-04-03T04:46:38;8.07;;;4.87;;
9461;SDS011;4769;42.660;23.262;2023-04-03T04:49:04;7.30;;;4.83;;
9461;SDS011;4769;42.660;23.262;2023-04-03T04:51:30;8.20;;;4.80;;
9461;SDS011;4769;42.660;23.262;2023-04-03T04:53:56;9.77;;;5.20;;
9461;SDS011;4769;42.660;23.262;2023-04-03T04:56:22;15.03;;;4.70;;
9461;SDS011;4769;42.660;23.262;2023-04-03T04:58:50;8.03;;;4.90;;
9461;SDS011;4769;42.660;23.262;2023-04-03T05:01:16;9.60;;;5.40;;
9461;SDS011;4769;42.660;23.262;2023-04-03T05:03:42;7.77;;;4.90;;
9461;SDS011;4769;42.660;23.262;2023-04-03T05:06:07;11.97;;;5.33;;
9461;SDS011;4769;42.660;23.262;2023-04-03T05:08:33;6.07;;;3.83;;
9461;SDS011;4769;42.660;23.262;2023-04-03T05:10:59;4.83;;;3.60;;
9461;SDS011;4769;42.660;23.262;2023-04-03T05:13:24;6.00;;;3.43;;
9461;SDS011;4769;42.660;23.262;2023-04-03T05:15:54;6.87;;;3.50;;
9461;SDS011;4769;42.660;23.262;2023-04-03T05:18:20;8.87;;;3.60;;
9461;SDS011;4769;42.660;23.262;2023-04-03T05:20:47;6.57;;;4.27;;
9461;SDS011;4769;42.660;23.262;2023-04-03T05:23:14;10.37;;;4.53;;
9461;SDS011;4769;42.660;23.262;2023-04-03T05:25:42;12.50;;;6.37;;
9461;SDS011;4769;42.660;23.262;2023-04-03T05:28:08;14.53;;;9.50;;
9461;SDS011;4769;42.660;23.262;2023-04-03T05:30:36;19.53;;;10.80;;
9461;SDS011;4769;42.660;23.262;2023-04-03T05:33:05;23.67;;;11.97;;
9461;SDS011;4769;42.660;23.262;2023-04-03T05:35:36;30.27;;;11.03;;
9461;SDS011;4769;42.660;23.262;2023-04-03T05:38:13;22.97;;;9.83;;
9461;SDS011;4769;42.660;23.262;2023-04-03T05:40:42;21.60;;;10.50;;
9461;SDS011;4769;42.660;23.262;2023-04-03T05:43:13;22.00;;;10.63;;
9461;SDS011;4769;42.660;23.262;2023-04-03T05:45:38;23.17;;;10.57;;
9461;SDS011;4769;42.660;23.262;2023-04-03T05:48:10;23.77;;;10.93;;
9461;SDS011;4769;42.660;23.262;2023-04-03T05:50:36;18.43;;;10.17;;
9461;SDS011;4769;42.660;23.262;2023-04-03T05:53:06;21.77;;;12.60;;
9461;SDS011;4769;42.660;23.262;2023-04-03T05:55:50;19.33;;;10.37;;
9461;SDS011;4769;42.660;23.262;2023-04-03T05:58:18;26.23;;;10.77;;
9461;SDS011;4769;42.660;23.262;2023-04-03T06:00:44;19.93;;;10.57;;
9461;SDS011;4769;42.660;23.262;2023-04-03T06:03:13;24.03;;;10.23;;
9461;SDS011;4769;42.660;23.262;2023-04-03T06:05:38;15.57;;;10.27;;
9461;SDS011;4769;42.660;23.262;2023-04-03T06:08:04;24.33;;;11.07;;
9461;SDS011;4769;42.660;23.262;2023-04-03T06:10:30;23.37;;;11.67;;
9461;SDS011;4769;42.660;23.262;2023-04-03T06:12:58;14.33;;;9.63;;
9461;SDS011;4769;42.660;23.262;2023-04-03T06:15:24;18.60;;;10.27;;
9461;SDS011;4769;42.660;23.262;2023-04-03T06:17:50;23.57;;;9.67;;
9461;SDS011;4769;42.660;23.262;2023-04-03T06:20:19;25.80;;;10.23;;
9461;SDS011;4769;42.660;23.262;2023-04-03T06:22:45;17.43;;;10.57;;
9461;SDS011;4769;42.660;23.262;2023-04-03T06:25:13;19.60;;;11.13;;
9461;SDS011;4769;42.660;23.262;2023-04-03T06:27:42;25.73;;;12.07;;
9461;SDS011;4769;42.660;23.262;2023-04-03T06:30:08;21.57;;;11.57;;
9461;SDS011;4769;42.660;23.262;2023-04-03T06:32:36;20.30;;;11.37;;
9461;SDS011;4769;42.660;23.262;2023-04-03T06:35:02;22.37;;;11.10;;
9461;SDS011;4769;42.660;23.262;2023-04-03T06:37:31;18.17;;;11.00;;
9461;SDS011;4769;42.660;23.262;2023-04-03T06:39:57;23.77;;;11.27;;
9461;SDS011;4769;42.660;23.262;2023-04-03T06:42:26;19.10;;;11.57;;
9461;SDS011;4769;42.660;23.262;2023-04-03T06:44:55;24.03;;;10.90;;
9461;SDS011;4769;42.660;23.262;2023-04-03T06:47:23;21.30;;;10.77;;
9461;SDS011;4769;42.660;23.262;2023-04-03T06:49:52;18.47;;;10.67;;
9461;SDS011;4769;42.660;23.262;2023-04-03T06:52:18;14.30;;;8.63;;
9461;SDS011;4769;42.660;23.262;2023-04-03T06:54:56;13.23;;;7.80;;
9461;SDS011;4769;42.660;23.262;2023-04-03T06:57:24;12.30;;;6.90;;
9461;SDS011;4769;42.660;23.262;2023-04-03T06:59:53;18.23;;;7.67;;
9461;SDS011;4769;42.660;23.262;2023-04-03T07:02:20;16.53;;;6.90;;
9461;SDS011;4769;42.660;23.262;2023-04-03T07:04:48;6.83;;;3.83;;
9461;SDS011;4769;42.660;23.262;2023-04-03T07:07:13;9.55;;;5.45;;
9461;SDS011;4769;42.660;23.262;2023-04-03T07:09:46;10.10;;;6.20;;
9461;SDS011;4769;42.660;23.262;2023-04-03T07:12:17;11.85;;;5.60;;
9461;SDS011;4769;42.660;23.262;2023-04-03T07:14:43;9.35;;;5.97;;
9461;SDS011;4769;42.660;23.262;2023-04-03T07:17:09;13.20;;;6.00;;
9461;SDS011;4769;42.660;23.262;2023-04-03T07:19:34;8.98;;;5.45;;
9461;SDS011;4769;42.660;23.262;2023-04-03T07:22:00;9.52;;;5.20;;
9461;SDS011;4769;42.660;23.262;2023-04-03T07:24:26;6.18;;;4.40;;
9461;SDS011;4769;42.660;23.262;2023-04-03T07:26:52;9.95;;;5.05;;
9461;SDS011;4769;42.660;23.262;2023-04-03T07:29:21;8.20;;;4.22;;
9461;SDS011;4769;42.660;23.262;2023-04-03T07:31:46;10.43;;;5.28;;
9461;SDS011;4769;42.660;23.262;2023-04-03T07:34:12;8.15;;;5.15;;
9461;SDS011;4769;42.660;23.262;2023-04-03T07:36:38;7.22;;;5.18;;
9461;SDS011;4769;42.660;23.262;2023-04-03T07:39:03;13.80;;;6.68;;
9461;SDS011;4769;42.660;23.262;2023-04-03T07:41:29;13.77;;;4.95;;
9461;SDS011;4769;42.660;23.262;2023-04-03T07:43:55;5.95;;;5.30;;
9461;SDS011;4769;42.660;23.262;2023-04-03T07:46:23;6.38;;;4.35;;
9461;SDS011;4769;42.660;23.262;2023-04-03T07:48:49;7.13;;;4.30;;
9461;SDS011;4769;42.660;23.262;2023-04-03T07:51:15;8.07;;;4.70;;
9461;SDS011;4769;42.660;23.262;2023-04-03T07:53:41;9.18;;;5.93;;
9461;SDS011;4769;42.660;23.262;2023-04-03T07:56:06;8.65;;;6.30;;
9461;SDS011;4769;42.660;23.262;2023-04-03T07:58:32;7.57;;;5.70;;
9461;SDS011;4769;42.660;23.262;2023-04-03T08:00:58;6.95;;;5.15;;
9461;SDS011;4769;42.660;23.262;2023-04-03T08:03:27;8.40;;;4.70;;
9461;SDS011;4769;42.660;23.262;2023-04-03T08:05:53;8.75;;;4.03;;
9461;SDS011;4769;42.660;23.262;2023-04-03T08:08:20;11.07;;;4.38;;
9461;SDS011;4769;42.660;23.262;2023-04-03T08:10:48;11.35;;;4.53;;
9461;SDS011;4769;42.660;23.262;2023-04-03T08:13:18;8.38;;;4.80;;
9461;SDS011;4769;42.660;23.262;2023-04-03T08:15:45;9.63;;;5.20;;
9461;SDS011;4769;42.660;23.262;2023-04-03T08:18:16;10.02;;;4.95;;
9461;SDS011;4769;42.660;23.262;2023-04-03T08:20:45;11.63;;;5.43;;
9461;SDS011;4769;42.660;23.262;2023-04-03T08:23:16;12.30;;;5.40;;
9461;SDS011;4769;42.660;23.262;2023-04-03T08:25:41;8.63;;;5.65;;
9461;SDS011;4769;42.660;23.262;2023-04-03T08:28:08;12.48;;;6.53;;
9461;SDS011;4769;42.660;23.262;2023-04-03T08:30:34;8.65;;;5.43;;
9461;SDS011;4769;42.660;23.262;2023-04-03T08:33:00;9.52;;;4.68;;
9461;SDS011;4769;42.660;23.262;2023-04-03T08:35:26;7.65;;;4.70;;
9461;SDS011;4769;42.660;23.262;2023-04-03T08:37:56;13.55;;;5.10;;
9461;SDS011;4769;42.660;23.262;2023-04-03T08:40:21;7.90;;;4.95;;
9461;SDS011;4769;42.660;23.262;2023-04-03T08:42:51;10.82;;;5.90;;
9461;SDS011;4769;42.660;23.262;2023-04-03T08:45:22;13.23;;;6.15;;
9461;SDS011;4769;42.660;23.262;2023-04-03T08:47:57;9.85;;;6.40;;
9461;SDS011;4769;42.660;23.262;2023-04-03T08:50:30;11.43;;;7.30;;
9461;SDS011;4769;42.660;23.262;2023-04-03T08:53:01;10.20;;;7.78;;
9461;SDS011;4769;42.660;23.262;2023-04-03T08:55:29;13.60;;;7.75;;
9461;SDS011;4769;42.660;23.262;2023-04-03T08:57:59;11.98;;;7.47;;
9461;SDS011;4769;42.660;23.262;2023-04-03T09:00:28;12.32;;;7.97;;
9461;SDS011;4769;42.660;23.262;2023-04-03T09:02:58;15.27;;;8.10;;
9461;SDS011;4769;42.660;23.262;2023-04-03T09:05:28;14.70;;;7.85;;
9461;SDS011;4769;42.660;23.262;2023-04-03T09:08:04;11.45;;;8.63;;
9461;SDS011;4769;42.660;23.262;2023-04-03T09:10:37;13.23;;;9.18;;
9461;SDS011;4769;42.660;23.262;2023-04-03T09:13:05;17.00;;;9.88;;
9461;SDS011;4769;42.660;23.262;2023-04-03T09:15:38;20.08;;;11.63;;
9461;SDS011;4769;42.660;23.262;2023-04-03T09:18:04;21.95;;;12.90;;
9461;SDS011;4769;42.660;23.262;2023-04-03T09:20:39;26.48;;;12.27;;
9461;SDS011;4769;42.660;23.262;2023-04-03T09:23:18;18.05;;;11.80;;
9461;SDS011;4769;42.660;23.262;2023-04-03T09:25:48;18.92;;;10.93;;
9461;SDS011;4769;42.660;23.262;2023-04-03T09:28:15;23.23;;;11.27;;
9461;SDS011;4769;42.660;23.262;2023-04-03T09:30:41;21.17;;;10.00;;
9461;SDS011;4769;42.660;23.262;2023-04-03T09:33:07;20.80;;;9.85;;
9461;SDS011;4769;42.660;23.262;2023-04-03T09:35:35;22.83;;;9.90;;
9461;SDS011;4769;42.660;23.262;2023-04-03T09:38:14;15.13;;;9.60;;
9461;SDS011;4769;42.660;23.262;2023-04-03T09:40:45;10.50;;;6.35;;
9461;SDS011;4769;42.660;23.262;2023-04-03T09:43:20;8.43;;;4.47;;
9461;SDS011;4769;42.660;23.262;2023-04-03T09:45:53;5.18;;;4.43;;
9461;SDS011;4769;42.660;23.262;2023-04-03T09:48:19;6.88;;;3.72;;
9461;SDS011;4769;42.660;23.262;2023-04-03T09:50:56;4.90;;;3.58;;
9461;SDS011;4769;42.660;23.262;2023-04-03T09:53:31;5.93;;;2.50;;
9461;SDS011;4769;42.660;23.262;2023-04-03T09:55:59;5.45;;;2.55;;
9461;SDS011;4769;42.660;23.262;2023-04-03T09:58:27;5.35;;;2.75;;
9461;SDS011;4769;42.660;23.262;2023-04-03T10:00:54;4.95;;;2.70;;
9461;SDS011;4769;42.660;23.262;2023-04-03T10:03:23;3.75;;;2.25;;
9461;SDS011;4769;42.660;23.262;2023-04-03T10:05:50;3.70;;;2.53;;
9461;SDS011;4769;42.660;23.262;2023-04-03T10:08:20;6.80;;;4.32;;
9461;SDS011;4769;42.660;23.262;2023-04-03T10:11:04;5.07;;;4.00;;
9461;SDS011;4769;42.660;23.262;2023-04-03T10:13:32;10.10;;;6.78;;
9461;SDS011;4769;42.660;23.262;2023-04-03T10:15:59;5.07;;;2.95;;
9461;SDS011;4769;42.660;23.262;2023-04-03T10:18:29;7.22;;;3.03;;
9461;SDS011;4769;42.660;23.262;2023-04-03T10:21:04;7.40;;;2.55;;
9461;SDS011;4769;42.660;23.262;2023-04-03T10:23:36;4.88;;;2.55;;
9461;SDS011;4769;42.660;23.262;2023-04-03T10:26:12;3.88;;;2.70;;
9461;SDS011;4769;42.660;23.262;2023-04-03T10:28:46;6.72;;;2.50;;
9461;SDS011;4769;42.660;23.262;2023-04-03T10:31:18;4.88;;;2.20;;
9461;SDS011;4769;42.660;23.262;2023-04-03T10:33:52;5.90;;;2.63;;
9461;SDS011;4769;42.660;23.262;2023-04-03T10:36:29;4.68;;;2.78;;
9461;SDS011;4769;42.660;23.262;2023-04-03T10:39:04;5.32;;;2.53;;
9461;SDS011;4769;42.660;23.262;2023-04-03T10:41:42;3.88;;;2.53;;
9461;SDS011;4769;42.660;23.262;2023-04-03T10:44:20;3.72;;;2.47;;
9461;SDS011;4769;42.660;23.262;2023-04-03T10:46:58;5.43;;;2.40;;
9461;SDS011;4769;42.660;23.262;2023-04-03T10:49:34;5.20;;;2.72;;
9461;SDS011;4769;42.660;23.262;2023-04-03T10:52:08;8.75;;;5.10;;
9461;SDS011;4769;42.660;23.262;2023-04-03T10:54:41;4.78;;;2.80;;
9461;SDS011;4769;42.660;23.262;2023-04-03T10:57:17;3.97;;;2.72;;
9461;SDS011;4769;42.660;23.262;2023-04-03T10:59:43;6.55;;;3.00;;
9461;SDS011;4769;42.660;23.262;2023-04-03T11:02:14;4.60;;;2.78;;
9461;SDS011;4769;42.660;23.262;2023-04-03T11:04:44;5.38;;;2.90;;
9461;SDS011;4769;42.660;23.262;2023-04-03T11:07:15;3.58;;;2.70;;
9461;SDS011;4769;42.660;23.262;2023-04-03T11:09:45;5.78;;;3.38;;
9461;SDS011;4769;42.660;23.262;2023-04-03T11:12:14;3.63;;;2.53;;
9461;SDS011;4769;42.660;23.262;2023-04-03T11:14:48;3.22;;;2.70;;
9461;SDS011;4769;42.660;23.262;2023-04-03T11:17:20;4.32;;;3.22;;
9461;SDS011;4769;42.660;23.262;2023-04-03T11:19:52;4.07;;;3.20;;
9461;SDS011;4769;42.660;23.262;2023-04-03T11:22:27;4.63;;;4.10;;
9461;SDS011;4769;42.660;23.262;2023-04-03T11:25:02;5.32;;;4.30;;
9461;SDS011;4769;42.660;23.262;2023-04-03T11:27:34;5.50;;;3.72;;
9461;SDS011;4769;42.660;23.262;2023-04-03T11:30:06;6.05;;;3.85;;
9461;SDS011;4769;42.660;23.262;2023-04-03T11:32:46;5.65;;;3.83;;
9461;SDS011;4769;42.660;23.262;2023-04-03T11:35:19;5.13;;;4.22;;
9461;SDS011;4769;42.660;23.262;2023-04-03T11:37:47;6.18;;;4.10;;
9461;SDS011;4769;42.660;23.262;2023-04-03T11:40:20;6.72;;;3.80;;
9461;SDS011;4769;42.660;23.262;2023-04-03T11:42:52;5.18;;;4.00;;
9461;SDS011;4769;42.660;23.262;2023-04-03T11:45:32;3.95;;;3.55;;
9461;SDS011;4769;42.660;23.262;2023-04-03T11:48:01;4.47;;;3.75;;
9461;SDS011;4769;42.660;23.262;2023-04-03T11:50:42;6.18;;;3.95;;
9461;SDS011;4769;42.660;23.262;2023-04-03T11:55:58;6.30;;;4.63;;
9461;SDS011;4769;42.660;23.262;2023-04-03T11:58:28;6.00;;;4.77;;
9461;SDS011;4769;42.660;23.262;2023-04-03T12:01:00;5.93;;;4.63;;
9461;SDS011;4769;42.660;23.262;2023-04-03T12:03:34;5.88;;;4.80;;
9461;SDS011;4769;42.660;23.262;2023-04-03T12:09:29;7.83;;;5.57;;
9461;SDS011;4769;42.660;23.262;2023-04-03T12:12:24;5.20;;;4.40;;
9461;SDS011;4769;42.660;23.262;2023-04-03T12:14:56;6.53;;;5.03;;
9461;SDS011;4769;42.660;23.262;2023-04-03T12:17:43;5.77;;;4.73;;
9461;SDS011;4769;42.660;23.262;2023-04-03T12:23:07;4.47;;;3.87;;
9461;SDS011;4769;42.660;23.262;2023-04-03T12:25:47;5.00;;;4.07;;
9461;SDS011;4769;42.660;23.262;2023-04-03T12:28:14;6.83;;;4.10;;
9461;SDS011;4769;42.660;23.262;2023-04-03T12:30:42;5.87;;;3.60;;
9461;SDS011;4769;42.660;23.262;2023-04-03T12:33:19;6.23;;;4.23;;
9461;SDS011;4769;42.660;23.262;2023-04-03T12:35:57;7.10;;;3.90;;
9461;SDS011;4769;42.660;23.262;2023-04-03T12:41:28;6.97;;;4.50;;
9461;SDS011;4769;42.660;23.262;2023-04-03T12:44:04;7.60;;;4.73;;
9461;SDS011;4769;42.660;23.262;2023-04-03T12:46:50;5.13;;;4.30;;
9461;SDS011;4769;42.660;23.262;2023-04-03T12:49:26;5.47;;;4.90;;
9461;SDS011;4769;42.660;23.262;2023-04-03T12:52:01;4.90;;;4.13;;
9461;SDS011;4769;42.660;23.262;2023-04-03T12:54:44;5.90;;;4.53;;
9461;SDS011;4769;42.660;23.262;2023-04-03T12:57:12;5.30;;;4.77;;
9461;SDS011;4769;42.660;23.262;2023-04-03T12:59:42;5.20;;;4.20;;
9461;SDS011;4769;42.660;23.262;2023-04-03T13:02:15;6.73;;;4.00;;
9461;SDS011;4769;42.660;23.262;2023-04-03T13:04:46;6.40;;;5.47;;
9461;SDS011;4769;42.660;23.262;2023-04-03T13:07:23;11.47;;;6.33;;
9461;SDS011;4769;42.660;23.262;2023-04-03T13:09:55;8.27;;;5.70;;
9461;SDS011;4769;42.660;23.262;2023-04-03T13:12:22;8.27;;;7.10;;
9461;SDS011;4769;42.660;23.262;2023-04-03T13:14:51;11.27;;;6.47;;
9461;SDS011;4769;42.660;23.262;2023-04-03T13:17:20;6.43;;;5.83;;
9461;SDS011;4769;42.660;23.262;2023-04-03T13:19:46;7.37;;;5.80;;
9461;SDS011;4769;42.660;23.262;2023-04-03T13:22:16;6.00;;;5.40;;
9461;SDS011;4769;42.660;23.262;2023-04-03T13:24:51;7.70;;;5.63;;
9461;SDS011;4769;42.660;23.262;2023-04-03T13:27:19;11.27;;;5.43;;
9461;SDS011;4769;42.660;23.262;2023-04-03T13:29:48;5.80;;;5.07;;
9461;SDS011;4769;42.660;23.262;2023-04-03T13:32:16;6.10;;;5.30;;
9461;SDS011;4769;42.660;23.262;2023-04-03T13:34:47;7.87;;;5.93;;
9461;SDS011;4769;42.660;23.262;2023-04-03T13:37:20;8.67;;;6.50;;
9461;SDS011;4769;42.660;23.262;2023-04-03T13:39:56;7.93;;;5.90;;
9461;SDS011;4769;42.660;23.262;2023-04-03T13:42:25;6.20;;;5.13;;
9461;SDS011;4769;42.660;23.262;2023-04-03T13:47:44;6.67;;;5.23;;
9461;SDS011;4769;42.660;23.262;2023-04-03T13:50:15;6.67;;;5.60;;
9461;SDS011;4769;42.660;23.262;2023-04-03T13:52:45;9.13;;;8.03;;
9461;SDS011;4769;42.660;23.262;2023-04-03T13:55:17;8.50;;;6.90;;
9461;SDS011;4769;42.660;23.262;2023-04-03T13:57:50;7.57;;;6.60;;
9461;SDS011;4769;42.660;23.262;2023-04-03T14:00:25;6.17;;;5.50;;
9461;SDS011;4769;42.660;23.262;2023-04-03T14:03:00;6.53;;;4.70;;
9461;SDS011;4769;42.660;23.262;2023-04-03T14:05:26;9.27;;;7.70;;
9461;SDS011;4769;42.660;23.262;2023-04-03T14:07:52;5.07;;;4.40;;
9461;SDS011;4769;42.660;23.262;2023-04-03T14:10:18;6.00;;;5.00;;
9461;SDS011;4769;42.660;23.262;2023-04-03T14:12:44;5.77;;;5.03;;
9461;SDS011;4769;42.660;23.262;2023-04-03T14:15:14;7.37;;;4.77;;
9461;SDS011;4769;42.660;23.262;2023-04-03T14:17:42;5.03;;;4.37;;
9461;SDS011;4769;42.660;23.262;2023-04-03T14:20:13;7.03;;;4.10;;
9461;SDS011;4769;42.660;23.262;2023-04-03T14:22:40;5.53;;;4.00;;
9461;SDS011;4769;42.660;23.262;2023-04-03T14:25:06;3.70;;;3.30;;
9461;SDS011;4769;42.660;23.262;2023-04-03T14:27:34;5.63;;;3.63;;
9461;SDS011;4769;42.660;23.262;2023-04-03T14:30:01;5.30;;;3.77;;
9461;SDS011;4769;42.660;23.262;2023-04-03T14:32:28;5.33;;;4.50;;
9461;SDS011;4769;42.660;23.262;2023-04-03T14:34:54;5.43;;;4.37;;
9461;SDS011;4769;42.660;23.262;2023-04-03T14:37:24;6.23;;;4.97;;
9461;SDS011;4769;42.660;23.262;2023-04-03T14:39:52;4.77;;;4.07;;
9461;SDS011;4769;42.660;23.262;2023-04-03T14:42:19;4.63;;;3.90;;
9461;SDS011;4769;42.660;23.262;2023-04-03T14:44:46;6.23;;;4.47;;
9461;SDS011;4769;42.660;23.262;2023-04-03T14:47:13;5.80;;;4.60;;
9461;SDS011;4769;42.660;23.262;2023-04-03T14:49:41;4.20;;;3.80;;
9461;SDS011;4769;42.660;23.262;2023-04-03T14:52:09;4.17;;;3.13;;
9461;SDS011;4769;42.660;23.262;2023-04-03T14:54:46;3.67;;;3.10;;
9461;SDS011;4769;42.660;23.262;2023-04-03T14:57:13;4.70;;;3.87;;
9461;SDS011;4769;42.660;23.262;2023-04-03T14:59:40;5.60;;;3.47;;
9461;SDS011;4769;42.660;23.262;2023-04-03T15:02:10;4.40;;;3.30;;
9461;SDS011;4769;42.660;23.262;2023-04-03T15:04:49;3.43;;;3.03;;
9461;SDS011;4769;42.660;23.262;2023-04-03T15:07:15;3.23;;;2.90;;
9461;SDS011;4769;42.660;23.262;2023-04-03T15:09:41;5.27;;;4.10;;
9461;SDS011;4769;42.660;23.262;2023-04-03T15:12:10;4.27;;;3.57;;
9461;SDS011;4769;42.660;23.262;2023-04-03T15:14:35;22.07;;;18.10;;
9461;SDS011;4769;42.660;23.262;2023-04-03T15:17:02;55.60;;;41.17;;
9461;SDS011;4769;42.660;23.262;2023-04-03T15:19:29;9.03;;;7.40;;
9461;SDS011;4769;42.660;23.262;2023-04-03T15:22:00;6.57;;;5.97;;